sensor_id;sensor_type;location;lat;lon;timestamp;pressure;altitude;pressure_sealevel;temperature;humidity
14117;BME280;7137;51.436;6.544;2023-04-29T00:02:50;100928.28;;;11.37;100.00
14117;BME280;7137;51.436;6.544;2023-04-29T00:05:51;100924.59;;;11.44;100.00
14117;BME280;7137;51.436;6.544;2023-04-29T00:08:53;100932.22;;;11.50;100.00
14117;BME280;7137;51.436;6.544;2023-04-29T00:11:55;100931.53;;;11.45;100.00
14117;BME280;7137;51.436;6.544;2023-04-29T00:14:57;100930.78;;;11.40;100.00
14117;BME280;7137;51.436;6.544;2023-04-29T00:18:00;100931.38;;;11.49;100.00
14117;BME280;7137;51.436;6.544;2023-04-29T00:21:02;100929.13;;;11.37;100.00
14117;BME280;7137;51.436;6.544;2023-04-29T00:24:06;100932.59;;;11.38;100.00
14117;BME280;7137;51.436;6.544;2023-04-29T00:27:07;100935.22;;;11.38;100.00
14117;BME280;7137;51.436;6.544;2023-04-29T00:30:11;100933.59;;;11.34;100.00
14117;BME280;7137;51.436;6.544;2023-04-29T00:33:13;100943.50;;;11.24;100.00
14117;BME280;7137;51.436;6.544;2023-04-29T00:36:15;100944.59;;;11.17;100.00
14117;BME280;7137;51.436;6.544;2023-04-29T00:39:17;100954.41;;;11.09;100.00
14117;BME280;7137;51.436;6.544;2023-04-29T00:42:19;100956.13;;;11.10;100.00
14117;BME280;7137;51.436;6.544;2023-04-29T00:45:22;100957.16;;;11.04;100.00
14117;BME280;7137;51.436;6.544;2023-04-29T00:48:25;100958.97;;;11.02;100.00
14117;BME280;7137;51.436;6.544;2023-04-29T00:51:27;100968.75;;;10.95;100.00
14117;BME280;7137;51.436;6.544;2023-04-29T00:54:28;100961.69;;;10.99;100.00
14117;BME280;7137;51.436;6.544;2023-04-29T00:57:30;100973.41;;;10.86;100.00
14117;BME280;7137;51.436;6.544;2023-04-29T01:00:34;100970.84;;;10.83;100.00
14117;BME280;7137;51.436;6.544;2023-04-29T01:03:38;100977.88;;;10.81;100.00
14117;BME280;7137;51.436;6.544;2023-04-29T01:06:49;100977.75;;;10.85;100.00
14117;BME280;7137;51.436;6.544;2023-04-29T01:10:02;100979.78;;;10.76;100.00
14117;BME280;7137;51.436;6.544;2023-04-29T01:13:06;100975.44;;;10.75;100.00
14117;BME280;7137;51.436;6.544;2023-04-29T01:16:10;100982.53;;;10.71;100.00
14117;BME280;7137;51.436;6.544;2023-04-29T01:19:30;100983.47;;;10.67;100.00
14117;BME280;7137;51.436;6.544;2023-04-29T01:22:39;100990.84;;;10.84;100.00
14117;BME280;7137;51.436;6.544;2023-04-29T01:25:42;100989.13;;;10.83;100.00
14117;BME280;7137;51.436;6.544;2023-04-29T01:28:49;100989.41;;;10.74;100.00
14117;BME280;7137;51.436;6.544;2023-04-29T01:31:57;100991.38;;;10.65;100.00
14117;BME280;7137;51.436;6.544;2023-04-29T01:35:10;100992.44;;;10.58;100.00
14117;BME280;7137;51.436;6.544;2023-04-29T01:38:22;101000.19;;;10.61;100.00
14117;BME280;7137;51.436;6.544;2023-04-29T01:41:34;101009.66;;;10.65;100.00
14117;BME280;7137;51.436;6.544;2023-04-29T01:44:40;101008.16;;;10.57;100.00
14117;BME280;7137;51.436;6.544;2023-04-29T01:47:43;101009.94;;;10.55;100.00
14117;BME280;7137;51.436;6.544;2023-04-29T01:50:46;101011.50;;;10.62;100.00
14117;BME280;7137;51.436;6.544;2023-04-29T01:53:48;101011.09;;;10.77;100.00
14117;BME280;7137;51.436;6.544;2023-04-29T01:56:51;101012.84;;;10.77;100.00
14117;BME280;7137;51.436;6.544;2023-04-29T01:59:53;101018.09;;;10.75;100.00
14117;BME280;7137;51.436;6.544;2023-04-29T02:02:55;101014.06;;;10.63;100.00
14117;BME280;7137;51.436;6.544;2023-04-29T02:05:56;101023.66;;;10.63;100.00
14117;BME280;7137;51.436;6.544;2023-04-29T02:08:58;101022.91;;;10.59;100.00
14117;BME280;7137;51.436;6.544;2023-04-29T02:12:01;101019.53;;;10.54;100.00
14117;BME280;7137;51.436;6.544;2023-04-29T02:15:04;101025.00;;;10.45;100.00
14117;BME280;7137;51.436;6.544;2023-04-29T02:18:06;101031.00;;;10.49;100.00
14117;BME280;7137;51.436;6.544;2023-04-29T02:21:07;101036.91;;;10.55;100.00
14117;BME280;7137;51.436;6.544;2023-04-29T02:24:09;101038.72;;;10.53;100.00
14117;BME280;7137;51.436;6.544;2023-04-29T02:27:12;101037.16;;;10.46;100.00
14117;BME280;7137;51.436;6.544;2023-04-29T02:30:14;101050.06;;;10.52;100.00
14117;BME280;7137;51.436;6.544;2023-04-29T02:33:15;101047.34;;;10.55;100.00
14117;BME280;7137;51.436;6.544;2023-04-29T02:36:17;101043.88;;;10.56;100.00
14117;BME280;7137;51.436;6.544;2023-04-29T02:39:19;101057.94;;;10.51;100.00
14117;BME280;7137;51.436;6.544;2023-04-29T02:42:22;101055.19;;;10.55;100.00
14117;BME280;7137;51.436;6.544;2023-04-29T02:45:23;101057.16;;;10.47;100.00
14117;BME280;7137;51.436;6.544;2023-04-29T02:48:25;101057.13;;;10.49;100.00
14117;BME280;7137;51.436;6.544;2023-04-29T02:51:27;101064.72;;;10.58;100.00
14117;BME280;7137;51.436;6.544;2023-04-29T02:54:28;101067.38;;;10.56;100.00
14117;BME280;7137;51.436;6.544;2023-04-29T02:57:32;101078.88;;;10.49;100.00
14117;BME280;7137;51.436;6.544;2023-04-29T03:00:34;101068.66;;;10.40;100.00
14117;BME280;7137;51.436;6.544;2023-04-29T03:03:35;101068.91;;;10.31;100.00
14117;BME280;7137;51.436;6.544;2023-04-29T03:06:37;101070.69;;;10.29;100.00
14117;BME280;7137;51.436;6.544;2023-04-29T03:09:38;101078.00;;;10.11;100.00
14117;BME280;7137;51.436;6.544;2023-04-29T03:12:41;101076.09;;;10.21;100.00
14117;BME280;7137;51.436;6.544;2023-04-29T03:15:43;101083.06;;;10.19;100.00
14117;BME280;7137;51.436;6.544;2023-04-29T03:18:45;101090.00;;;10.20;100.00
14117;BME280;7137;51.436;6.544;2023-04-29T03:21:47;101091.03;;;10.13;100.00
14117;BME280;7137;51.436;6.544;2023-04-29T03:24:49;101092.81;;;10.11;100.00
14117;BME280;7137;51.436;6.544;2023-04-29T03:27:56;101097.81;;;10.22;100.00
14117;BME280;7137;51.436;6.544;2023-04-29T03:30:57;101097.13;;;10.14;100.00
14117;BME280;7137;51.436;6.544;2023-04-29T03:33:59;101094.44;;;10.17;100.00
14117;BME280;7137;51.436;6.544;2023-04-29T03:37:01;101107.25;;;10.29;100.00
14117;BME280;7137;51.436;6.544;2023-04-29T03:40:03;101100.19;;;10.32;100.00
14117;BME280;7137;51.436;6.544;2023-04-29T03:43:06;101106.88;;;10.44;100.00
14117;BME280;7137;51.436;6.544;2023-04-29T03:46:08;101107.91;;;10.37;100.00
14117;BME280;7137;51.436;6.544;2023-04-29T03:49:10;101106.13;;;10.37;100.00
14117;BME280;7137;51.436;6.544;2023-04-29T03:52:12;101104.59;;;10.30;100.00
14117;BME280;7137;51.436;6.544;2023-04-29T03:55:13;101117.66;;;10.30;100.00
14117;BME280;7137;51.436;6.544;2023-04-29T03:58:16;101113.28;;;10.31;100.00
14117;BME280;7137;51.436;6.544;2023-04-29T04:01:18;101119.44;;;10.28;100.00
14117;BME280;7137;51.436;6.544;2023-04-29T04:04:19;101110.38;;;10.43;100.00
14117;BME280;7137;51.436;6.544;2023-04-29T04:07:22;101120.88;;;10.42;100.00
14117;BME280;7137;51.436;6.544;2023-04-29T04:10:24;101122.63;;;10.39;100.00
14117;BME280;7137;51.436;6.544;2023-04-29T04:13:27;101129.44;;;10.47;100.00
14117;BME280;7137;51.436;6.544;2023-04-29T04:16:28;101121.50;;;10.50;100.00
14117;BME280;7137;51.436;6.544;2023-04-29T04:19:30;101135.34;;;10.53;100.00
14117;BME280;7137;51.436;6.544;2023-04-29T04:22:32;101131.28;;;10.43;100.00
14117;BME280;7137;51.436;6.544;2023-04-29T04:25:33;101139.97;;;10.44;100.00
14117;BME280;7137;51.436;6.544;2023-04-29T04:28:36;101136.41;;;10.46;100.00
14117;BME280;7137;51.436;6.544;2023-04-29T04:31:38;101140.78;;;10.46;100.00
14117;BME280;7137;51.436;6.544;2023-04-29T04:34:39;101143.44;;;10.44;100.00
14117;BME280;7137;51.436;6.544;2023-04-29T04:37:41;101149.59;;;10.42;100.00
14117;BME280;7137;51.436;6.544;2023-04-29T04:40:43;101159.75;;;10.52;100.00
14117;BME280;7137;51.436;6.544;2023-04-29T04:43:46;101159.59;;;10.60;100.00
14117;BME280;7137;51.436;6.544;2023-04-29T04:46:47;101153.59;;;10.56;100.00
14117;BME280;7137;51.436;6.544;2023-04-29T04:49:49;101152.69;;;10.57;100.00
14117;BME280;7137;51.436;6.544;2023-04-29T04:52:53;101166.69;;;10.53;100.00
14117;BME280;7137;51.436;6.544;2023-04-29T04:55:59;101175.91;;;10.32;100.00
14117;BME280;7137;51.436;6.544;2023-04-29T04:59:02;101180.44;;;10.24;100.00
14117;BME280;7137;51.436;6.544;2023-04-29T05:02:04;101185.63;;;10.26;100.00
14117;BME280;7137;51.436;6.544;2023-04-29T05:05:06;101181.16;;;10.31;100.00
14117;BME280;7137;51.436;6.544;2023-04-29T05:08:08;101189.72;;;10.37;100.00
14117;BME280;7137;51.436;6.544;2023-04-29T05:11:15;101192.25;;;10.40;100.00
14117;BME280;7137;51.436;6.544;2023-04-29T05:14:18;101195.16;;;10.28;100.00
14117;BME280;7137;51.436;6.544;2023-04-29T05:17:20;101196.16;;;10.21;100.00
14117;BME280;7137;51.436;6.544;2023-04-29T05:20:21;101202.81;;;10.36;100.00
14117;BME280;7137;51.436;6.544;2023-04-29T05:23:23;101203.50;;;10.44;100.00
14117;BME280;7137;51.436;6.544;2023-04-29T05:26:24;101211.44;;;10.38;100.00
14117;BME280;7137;51.436;6.544;2023-04-29T05:29:27;101212.97;;;10.48;100.00
14117;BME280;7137;51.436;6.544;2023-04-29T05:32:29;101214.00;;;10.41;100.00
14117;BME280;7137;51.436;6.544;2023-04-29T05:35:30;101216.72;;;10.36;100.00
14117;BME280;7137;51.436;6.544;2023-04-29T05:38:32;101217.50;;;10.42;100.00
14117;BME280;7137;51.436;6.544;2023-04-29T05:41:33;101226.16;;;10.44;100.00
14117;BME280;7137;51.436;6.544;2023-04-29T05:44:36;101235.63;;;10.48;100.00
14117;BME280;7137;51.436;6.544;2023-04-29T05:47:39;101237.56;;;10.38;100.00
14117;BME280;7137;51.436;6.544;2023-04-29T05:50:40;101247.09;;;10.40;100.00
14117;BME280;7137;51.436;6.544;2023-04-29T05:53:42;101245.44;;;10.36;100.00
14117;BME280;7137;51.436;6.544;2023-04-29T05:56:43;101247.94;;;10.41;100.00
14117;BME280;7137;51.436;6.544;2023-04-29T05:59:46;101258.59;;;10.32;100.00
14117;BME280;7137;51.436;6.544;2023-04-29T06:02:48;101260.22;;;10.37;100.00
14117;BME280;7137;51.436;6.544;2023-04-29T06:05:49;101259.88;;;10.53;100.00
14117;BME280;7137;51.436;6.544;2023-04-29T06:08:52;101258.31;;;10.46;100.00
14117;BME280;7137;51.436;6.544;2023-04-29T06:11:54;101269.75;;;10.38;100.00
14117;BME280;7137;51.436;6.544;2023-04-29T06:14:57;101276.50;;;10.49;100.00
14117;BME280;7137;51.436;6.544;2023-04-29T06:17:58;101280.16;;;10.42;100.00
14117;BME280;7137;51.436;6.544;2023-04-29T06:21:00;101284.50;;;10.41;100.00
14117;BME280;7137;51.436;6.544;2023-04-29T06:24:01;101286.09;;;10.48;100.00
14117;BME280;7137;51.436;6.544;2023-04-29T06:27:03;101296.31;;;10.59;100.00
14117;BME280;7137;51.436;6.544;2023-04-29T06:30:07;101304.25;;;10.56;100.00
14117;BME280;7137;51.436;6.544;2023-04-29T06:33:09;101306.81;;;10.57;100.00
14117;BME280;7137;51.436;6.544;2023-04-29T06:36:11;101301.38;;;10.66;100.00
14117;BME280;7137;51.436;6.544;2023-04-29T06:39:14;101305.38;;;10.81;100.00
14117;BME280;7137;51.436;6.544;2023-04-29T06:42:15;101305.69;;;10.67;100.00
14117;BME280;7137;51.436;6.544;2023-04-29T06:45:18;101304.19;;;10.57;100.00
14117;BME280;7137;51.436;6.544;2023-04-29T06:48:20;101312.16;;;10.51;100.00
14117;BME280;7137;51.436;6.544;2023-04-29T06:51:22;101318.00;;;10.62;100.00
14117;BME280;7137;51.436;6.544;2023-04-29T06:54:24;101324.88;;;10.66;100.00
14117;BME280;7137;51.436;6.544;2023-04-29T06:57:27;101326.25;;;10.84;100.00
14117;BME280;7137;51.436;6.544;2023-04-29T07:00:29;101332.06;;;10.95;99.15
14117;BME280;7137;51.436;6.544;2023-04-29T07:03:31;101334.75;;;10.92;98.23
14117;BME280;7137;51.436;6.544;2023-04-29T07:06:33;101338.63;;;11.13;98.12
14117;BME280;7137;51.436;6.544;2023-04-29T07:09:34;101337.66;;;11.17;97.40
14117;BME280;7137;51.436;6.544;2023-04-29T07:12:36;101339.47;;;11.15;96.61
14117;BME280;7137;51.436;6.544;2023-04-29T07:15:39;101346.44;;;11.15;96.30
14117;BME280;7137;51.436;6.544;2023-04-29T07:18:41;101350.97;;;11.44;95.71
14117;BME280;7137;51.436;6.544;2023-04-29T07:21:42;101354.69;;;11.68;94.52
14117;BME280;7137;51.436;6.544;2023-04-29T07:24:44;101367.03;;;11.98;93.79
14117;BME280;7137;51.436;6.544;2023-04-29T07:27:46;101368.78;;;11.64;92.27
14117;BME280;7137;51.436;6.544;2023-04-29T07:30:49;101371.50;;;11.59;94.42
14117;BME280;7137;51.436;6.544;2023-04-29T07:33:51;101376.56;;;11.31;93.96
14117;BME280;7137;51.436;6.544;2023-04-29T07:36:52;101376.63;;;11.28;94.69
14117;BME280;7137;51.436;6.544;2023-04-29T07:39:55;101385.47;;;11.22;94.68
14117;BME280;7137;51.436;6.544;2023-04-29T07:42:57;101385.50;;;11.21;95.74
14117;BME280;7137;51.436;6.544;2023-04-29T07:45:59;101388.81;;;11.29;96.50
14117;BME280;7137;51.436;6.544;2023-04-29T07:49:01;101388.63;;;11.37;95.60
14117;BME280;7137;51.436;6.544;2023-04-29T07:52:03;101391.88;;;11.46;94.69
14117;BME280;7137;51.436;6.544;2023-04-29T07:55:05;101389.31;;;11.45;95.59
14117;BME280;7137;51.436;6.544;2023-04-29T07:58:08;101409.47;;;11.40;95.17
14117;BME280;7137;51.436;6.544;2023-04-29T08:01:11;101398.59;;;11.21;95.19
14117;BME280;7137;51.436;6.544;2023-04-29T08:04:12;101409.03;;;11.21;95.83
14117;BME280;7137;51.436;6.544;2023-04-29T08:07:14;101407.47;;;11.14;95.26
14117;BME280;7137;51.436;6.544;2023-04-29T08:10:16;101411.88;;;11.10;96.66
14117;BME280;7137;51.436;6.544;2023-04-29T08:13:17;101418.72;;;11.17;96.90
14117;BME280;7137;51.436;6.544;2023-04-29T08:16:20;101425.44;;;11.29;96.30
14117;BME280;7137;51.436;6.544;2023-04-29T08:19:23;101423.94;;;11.17;96.76
14117;BME280;7137;51.436;6.544;2023-04-29T08:22:25;101423.44;;;11.02;97.38
14117;BME280;7137;51.436;6.544;2023-04-29T08:25:26;101419.69;;;11.13;97.80
14117;BME280;7137;51.436;6.544;2023-04-29T08:28:28;101425.72;;;11.17;97.74
14117;BME280;7137;51.436;6.544;2023-04-29T08:31:31;101430.91;;;11.18;96.16
14117;BME280;7137;51.436;6.544;2023-04-29T08:34:33;101428.31;;;11.17;96.63
14117;BME280;7137;51.436;6.544;2023-04-29T08:37:35;101436.84;;;11.25;96.80
14117;BME280;7137;51.436;6.544;2023-04-29T08:40:42;101445.50;;;11.28;95.78
14117;BME280;7137;51.436;6.544;2023-04-29T08:43:45;101445.22;;;11.39;95.87
14117;BME280;7137;51.436;6.544;2023-04-29T08:46:49;101447.59;;;11.50;95.64
14117;BME280;7137;51.436;6.544;2023-04-29T08:49:52;101445.56;;;11.63;93.48
14117;BME280;7137;51.436;6.544;2023-04-29T08:52:54;101455.22;;;11.60;93.87
14117;BME280;7137;51.436;6.544;2023-04-29T08:56:00;101457.50;;;11.74;93.84
14117;BME280;7137;51.436;6.544;2023-04-29T08:59:04;101454.75;;;11.80;91.85
14117;BME280;7137;51.436;6.544;2023-04-29T09:02:12;101468.56;;;11.87;91.33
14117;BME280;7137;51.436;6.544;2023-04-29T09:05:16;101465.16;;;11.83;91.99
14117;BME280;7137;51.436;6.544;2023-04-29T09:08:19;101466.28;;;11.72;91.52
14117;BME280;7137;51.436;6.544;2023-04-29T09:11:21;101469.00;;;11.67;92.79
14117;BME280;7137;51.436;6.544;2023-04-29T09:14:24;101476.16;;;11.60;92.61
14117;BME280;7137;51.436;6.544;2023-04-29T09:17:51;101479.97;;;11.84;91.81
14117;BME280;7137;51.436;6.544;2023-04-29T09:20:52;101470.97;;;11.95;91.22
14117;BME280;7137;51.436;6.544;2023-04-29T09:23:55;101471.38;;;12.13;92.11
14117;BME280;7137;51.436;6.544;2023-04-29T09:26:58;101479.13;;;12.18;90.65
14117;BME280;7137;51.436;6.544;2023-04-29T09:30:00;101484.41;;;12.16;91.39
14117;BME280;7137;51.436;6.544;2023-04-29T09:33:05;101484.78;;;12.01;89.98
14117;BME280;7137;51.436;6.544;2023-04-29T09:36:07;101485.44;;;12.09;89.51
14117;BME280;7137;51.436;6.544;2023-04-29T09:39:10;101485.00;;;12.28;89.88
14117;BME280;7137;51.436;6.544;2023-04-29T09:42:12;101486.97;;;12.18;89.11
14117;BME280;7137;51.436;6.544;2023-04-29T09:45:31;101490.19;;;12.29;90.36
14117;BME280;7137;51.436;6.544;2023-04-29T09:48:37;101500.47;;;12.69;88.97
14117;BME280;7137;51.436;6.544;2023-04-29T09:51:51;101502.47;;;12.91;87.03
14117;BME280;7137;51.436;6.544;2023-04-29T09:55:03;101505.38;;;12.82;87.13
14117;BME280;7137;51.436;6.544;2023-04-29T09:58:05;101505.75;;;12.66;87.92
14117;BME280;7137;51.436;6.544;2023-04-29T10:01:08;101506.53;;;12.71;85.93
14117;BME280;7137;51.436;6.544;2023-04-29T10:04:14;101511.03;;;12.97;85.02
14117;BME280;7137;51.436;6.544;2023-04-29T10:07:16;101504.28;;;13.20;84.58
14117;BME280;7137;51.436;6.544;2023-04-29T10:10:20;101512.88;;;13.54;84.76
14117;BME280;7137;51.436;6.544;2023-04-29T10:13:24;101514.28;;;13.64;82.68
14117;BME280;7137;51.436;6.544;2023-04-29T10:16:27;101513.50;;;13.33;82.88
14117;BME280;7137;51.436;6.544;2023-04-29T10:19:33;101524.41;;;13.19;83.88
14117;BME280;7137;51.436;6.544;2023-04-29T10:22:44;101522.31;;;13.60;81.72
14117;BME280;7137;51.436;6.544;2023-04-29T10:25:47;101521.25;;;13.06;84.19
14117;BME280;7137;51.436;6.544;2023-04-29T10:28:50;101527.75;;;12.93;82.98
14117;BME280;7137;51.436;6.544;2023-04-29T10:31:54;101526.78;;;13.28;84.00
14117;BME280;7137;51.436;6.544;2023-04-29T10:34:59;101529.34;;;13.59;82.26
14117;BME280;7137;51.436;6.544;2023-04-29T10:38:06;101531.66;;;13.96;80.60
14117;BME280;7137;51.436;6.544;2023-04-29T10:41:16;101532.59;;;13.95;79.48
14117;BME280;7137;51.436;6.544;2023-04-29T10:44:19;101537.03;;;13.92;80.45
14117;BME280;7137;51.436;6.544;2023-04-29T10:47:22;101534.97;;;13.75;79.06
14117;BME280;7137;51.436;6.544;2023-04-29T10:50:27;101538.44;;;14.30;78.45
14117;BME280;7137;51.436;6.544;2023-04-29T10:53:29;101546.56;;;14.49;75.54
14117;BME280;7137;51.436;6.544;2023-04-29T10:56:46;101547.88;;;14.87;75.99
14117;BME280;7137;51.436;6.544;2023-04-29T10:59:52;101546.75;;;14.43;75.79
14117;BME280;7137;51.436;6.544;2023-04-29T11:02:54;101548.66;;;14.39;76.29
14117;BME280;7137;51.436;6.544;2023-04-29T11:06:07;101546.47;;;15.02;72.11
14117;BME280;7137;51.436;6.544;2023-04-29T11:09:11;101554.13;;;15.55;70.92
14117;BME280;7137;51.436;6.544;2023-04-29T11:12:19;101555.53;;;15.65;70.96
14117;BME280;7137;51.436;6.544;2023-04-29T11:15:20;101548.72;;;15.36;71.91
14117;BME280;7137;51.436;6.544;2023-04-29T11:18:22;101560.94;;;16.06;71.65
14117;BME280;7137;51.436;6.544;2023-04-29T11:21:26;101555.03;;;15.77;68.22
14117;BME280;7137;51.436;6.544;2023-04-29T11:24:28;101549.34;;;15.66;69.96
14117;BME280;7137;51.436;6.544;2023-04-29T11:27:30;101551.59;;;16.19;67.28
14117;BME280;7137;51.436;6.544;2023-04-29T11:30:33;101549.31;;;16.52;68.03
14117;BME280;7137;51.436;6.544;2023-04-29T11:33:35;101552.09;;;15.85;66.66
14117;BME280;7137;51.436;6.544;2023-04-29T11:36:38;101550.19;;;15.88;68.03
14117;BME280;7137;51.436;6.544;2023-04-29T11:39:40;101558.28;;;15.84;68.34
14117;BME280;7137;51.436;6.544;2023-04-29T11:42:44;101547.28;;;16.16;69.71
14117;BME280;7137;51.436;6.544;2023-04-29T11:45:46;101546.00;;;16.04;68.64
14117;BME280;7137;51.436;6.544;2023-04-29T11:48:48;101545.41;;;15.07;69.99
14117;BME280;7137;51.436;6.544;2023-04-29T11:51:51;101547.06;;;15.55;70.26
14117;BME280;7137;51.436;6.544;2023-04-29T11:54:54;101549.97;;;15.94;68.38
14117;BME280;7137;51.436;6.544;2023-04-29T11:57:55;101546.25;;;16.20;67.32
14117;BME280;7137;51.436;6.544;2023-04-29T12:00:57;101546.41;;;16.58;65.93
14117;BME280;7137;51.436;6.544;2023-04-29T12:03:59;101546.94;;;16.66;62.89
14117;BME280;7137;51.436;6.544;2023-04-29T12:07:03;101544.16;;;17.66;64.50
14117;BME280;7137;51.436;6.544;2023-04-29T12:10:07;101538.84;;;18.38;59.88
14117;BME280;7137;51.436;6.544;2023-04-29T12:13:10;101541.44;;;18.75;55.28
14117;BME280;7137;51.436;6.544;2023-04-29T12:16:12;101538.38;;;18.13;57.88
14117;BME280;7137;51.436;6.544;2023-04-29T12:19:13;101534.97;;;17.18;59.45
14117;BME280;7137;51.436;6.544;2023-04-29T12:22:18;101539.22;;;16.41;61.83
14117;BME280;7137;51.436;6.544;2023-04-29T12:25:24;101537.88;;;16.31;63.82
14117;BME280;7137;51.436;6.544;2023-04-29T12:28:26;101542.91;;;15.73;66.27
14117;BME280;7137;51.436;6.544;2023-04-29T12:31:32;101542.34;;;15.65;67.79
14117;BME280;7137;51.436;6.544;2023-04-29T12:34:35;101545.75;;;15.22;68.98
14117;BME280;7137;51.436;6.544;2023-04-29T12:37:38;101542.53;;;15.37;67.86
14117;BME280;7137;51.436;6.544;2023-04-29T12:40:40;101544.56;;;15.52;67.80
14117;BME280;7137;51.436;6.544;2023-04-29T12:43:42;101547.81;;;15.59;65.82
14117;BME280;7137;51.436;6.544;2023-04-29T12:46:44;101555.84;;;15.79;65.94
14117;BME280;7137;51.436;6.544;2023-04-29T12:49:46;101550.41;;;16.04;65.82
14117;BME280;7137;51.436;6.544;2023-04-29T12:52:50;101546.91;;;16.46;64.13
14117;BME280;7137;51.436;6.544;2023-04-29T12:55:52;101539.16;;;17.23;61.28
14117;BME280;7137;51.436;6.544;2023-04-29T12:58:54;101550.00;;;17.16;61.51
14117;BME280;7137;51.436;6.544;2023-04-29T13:01:55;101551.66;;;17.19;61.08
14117;BME280;7137;51.436;6.544;2023-04-29T13:04:57;101549.34;;;17.30;59.49
14117;BME280;7137;51.436;6.544;2023-04-29T13:08:01;101547.88;;;16.85;60.88
14117;BME280;7137;51.436;6.544;2023-04-29T13:11:05;101553.28;;;16.82;61.85
14117;BME280;7137;51.436;6.544;2023-04-29T13:14:06;101562.44;;;16.53;61.76
14117;BME280;7137;51.436;6.544;2023-04-29T13:17:08;101563.94;;;16.59;63.61
14117;BME280;7137;51.436;6.544;2023-04-29T13:20:10;101560.66;;;16.33;64.48
14117;BME280;7137;51.436;6.544;2023-04-29T13:23:14;101561.22;;;16.20;63.50
14117;BME280;7137;51.436;6.544;2023-04-29T13:26:15;101572.22;;;16.72;62.74
14117;BME280;7137;51.436;6.544;2023-04-29T13:29:17;101571.22;;;16.74;62.43
14117;BME280;7137;51.436;6.544;2023-04-29T13:32:19;101561.38;;;16.98;61.93
14117;BME280;7137;51.436;6.544;2023-04-29T13:35:22;101567.03;;;17.48;60.40
14117;BME280;7137;51.436;6.544;2023-04-29T13:38:25;101574.84;;;17.31;59.91
14117;BME280;7137;51.436;6.544;2023-04-29T13:41:27;101570.09;;;17.00;60.31
14117;BME280;7137;51.436;6.544;2023-04-29T13:44:28;101562.38;;;16.96;59.54
14117;BME280;7137;51.436;6.544;2023-04-29T13:47:30;101569.97;;;17.03;59.52
14117;BME280;7137;51.436;6.544;2023-04-29T13:50:32;101574.31;;;16.63;60.64
14117;BME280;7137;51.436;6.544;2023-04-29T13:53:35;101577.72;;;16.67;60.72
14117;BME280;7137;51.436;6.544;2023-04-29T13:56:36;101573.13;;;16.50;61.18
14117;BME280;7137;51.436;6.544;2023-04-29T13:59:38;101574.69;;;16.54;62.48
14117;BME280;7137;51.436;6.544;2023-04-29T14:02:39;101570.13;;;16.80;61.41
14117;BME280;7137;51.436;6.544;2023-04-29T14:05:41;101569.34;;;16.78;60.75
14117;BME280;7137;51.436;6.544;2023-04-29T14:08:44;101572.91;;;16.77;59.54
14117;BME280;7137;51.436;6.544;2023-04-29T14:11:46;101572.84;;;16.36;60.23
14117;BME280;7137;51.436;6.544;2023-04-29T14:14:48;101573.81;;;17.15;58.78
14117;BME280;7137;51.436;6.544;2023-04-29T14:17:49;101571.84;;;17.20;56.90
14117;BME280;7137;51.436;6.544;2023-04-29T14:20:52;101571.19;;;17.15;57.74
14117;BME280;7137;51.436;6.544;2023-04-29T14:23:55;101568.84;;;16.88;58.17
14117;BME280;7137;51.436;6.544;2023-04-29T14:26:57;101581.19;;;16.68;57.00
14117;BME280;7137;51.436;6.544;2023-04-29T14:30:01;101571.38;;;16.71;57.71
14117;BME280;7137;51.436;6.544;2023-04-29T14:33:03;101589.38;;;16.61;57.78
14117;BME280;7137;51.436;6.544;2023-04-29T14:36:06;101582.31;;;16.82;56.59
14117;BME280;7137;51.436;6.544;2023-04-29T14:39:09;101586.09;;;16.55;58.97
14117;BME280;7137;51.436;6.544;2023-04-29T14:42:10;101580.88;;;16.96;56.59
14117;BME280;7137;51.436;6.544;2023-04-29T14:45:12;101593.47;;;17.28;57.59
14117;BME280;7137;51.436;6.544;2023-04-29T14:48:13;101595.78;;;17.36;56.78
14117;BME280;7137;51.436;6.544;2023-04-29T14:51:15;101596.97;;;17.29;57.90
14117;BME280;7137;51.436;6.544;2023-04-29T14:54:18;101600.81;;;17.79;56.15
14117;BME280;7137;51.436;6.544;2023-04-29T14:57:19;101591.53;;;17.71;56.60
14117;BME280;7137;51.436;6.544;2023-04-29T15:00:21;101601.44;;;17.47;58.74
14117;BME280;7137;51.436;6.544;2023-04-29T15:03:22;101605.88;;;17.84;57.35
14117;BME280;7137;51.436;6.544;2023-04-29T15:06:24;101601.25;;;17.70;57.94
14117;BME280;7137;51.436;6.544;2023-04-29T15:09:28;101608.66;;;17.04;58.51
14117;BME280;7137;51.436;6.544;2023-04-29T15:12:29;101614.78;;;17.05;56.88
14117;BME280;7137;51.436;6.544;2023-04-29T15:15:31;101605.94;;;17.06;58.81
14117;BME280;7137;51.436;6.544;2023-04-29T15:18:32;101598.91;;;17.25;57.16
14117;BME280;7137;51.436;6.544;2023-04-29T15:21:34;101599.53;;;17.11;57.29
14117;BME280;7137;51.436;6.544;2023-04-29T15:24:37;101603.81;;;17.14;57.07
14117;BME280;7137;51.436;6.544;2023-04-29T15:27:39;101603.63;;;16.98;57.31
14117;BME280;7137;51.436;6.544;2023-04-29T15:30:40;101604.00;;;17.09;57.48
14117;BME280;7137;51.436;6.544;2023-04-29T15:33:42;101606.13;;;17.01;57.35
14117;BME280;7137;51.436;6.544;2023-04-29T15:36:43;101604.94;;;17.08;57.31
14117;BME280;7137;51.436;6.544;2023-04-29T15:39:46;101604.63;;;16.96;58.35
14117;BME280;7137;51.436;6.544;2023-04-29T15:42:48;101623.25;;;16.92;57.96
14117;BME280;7137;51.436;6.544;2023-04-29T15:45:49;101618.78;;;17.13;57.06
14117;BME280;7137;51.436;6.544;2023-04-29T15:48:51;101603.47;;;17.21;55.85
14117;BME280;7137;51.436;6.544;2023-04-29T15:51:52;101613.78;;;17.07;56.56
14117;BME280;7137;51.436;6.544;2023-04-29T15:54:55;101617.09;;;17.31;56.85
14117;BME280;7137;51.436;6.544;2023-04-29T15:57:57;101610.41;;;17.43;56.46
14117;BME280;7137;51.436;6.544;2023-04-29T16:00:59;101614.97;;;17.20;56.22
14117;BME280;7137;51.436;6.544;2023-04-29T16:04:00;101618.84;;;17.51;55.60